Andover, New Jersey
Current Conditions -  °F | °C
As of 8:53 PM on Sunday 21 Dec 2014 (Local Time) from KFWN Reporting Station
Overcast Overcast  
Wind Chill: 27°   Ceiling: 2300
Heat Index: 32°   Visibility: 10mi
Dew Point: 26°   Wind: 5mph
Humidity: 79%   Direction: 30°NNE
Pressure: 30.33"   Gusts: NA
Location:  40.99°N, 74.74°W
Report Text: KFWN 220153Z AUTO 03004KT 10SM OVC023 00/M03 A3033 RMK AO2 SLP274 T00001033
Loading
Personal Weather Stations






























Interactive Weather Map New forecast layout! Learn more

10-Day Weather Forecast

Advertisements
Track Severe Weather on mobile